sensor_id;sensor_type;location;lat;lon;timestamp;P1;durP1;ratioP1;P2;durP2;ratioP2
58308;SDS011;44117;57.142;24.826;2022-12-29T00:00:59;107.95;;;45.80;;
58308;SDS011;44117;57.142;24.826;2022-12-29T00:03:28;140.43;;;57.05;;
58308;SDS011;44117;57.142;24.826;2022-12-29T00:05:56;101.63;;;39.83;;
58308;SDS011;44117;57.142;24.826;2022-12-29T00:08:24;85.20;;;31.13;;
58308;SDS011;44117;57.142;24.826;2022-12-29T00:11:07;120.13;;;54.33;;
58308;SDS011;44117;57.142;24.826;2022-12-29T00:13:35;114.53;;;45.15;;
58308;SDS011;44117;57.142;24.826;2022-12-29T00:16:22;107.85;;;43.20;;
58308;SDS011;44117;57.142;24.826;2022-12-29T00:18:49;128.23;;;52.90;;
58308;SDS011;44117;57.142;24.826;2022-12-29T00:21:17;83.82;;;29.08;;
58308;SDS011;44117;57.142;24.826;2022-12-29T00:24:05;123.35;;;46.78;;
58308;SDS011;44117;57.142;24.826;2022-12-29T00:29:43;109.70;;;38.47;;
58308;SDS011;44117;57.142;24.826;2022-12-29T00:32:29;95.95;;;43.90;;
58308;SDS011;44117;57.142;24.826;2022-12-29T00:35:20;94.63;;;35.05;;
58308;SDS011;44117;57.142;24.826;2022-12-29T00:37:55;94.43;;;39.03;;
58308;SDS011;44117;57.142;24.826;2022-12-29T00:40:43;98.63;;;39.15;;
58308;SDS011;44117;57.142;24.826;2022-12-29T00:43:29;110.47;;;40.90;;
58308;SDS011;44117;57.142;24.826;2022-12-29T00:46:15;90.10;;;33.50;;
58308;SDS011;44117;57.142;24.826;2022-12-29T00:48:46;97.43;;;40.75;;
58308;SDS011;44117;57.142;24.826;2022-12-29T00:51:32;111.07;;;47.67;;
58308;SDS011;44117;57.142;24.826;2022-12-29T00:53:59;102.05;;;44.22;;
58308;SDS011;44117;57.142;24.826;2022-12-29T00:56:27;71.55;;;30.60;;
58308;SDS011;44117;57.142;24.826;2022-12-29T00:58:54;81.50;;;36.65;;
58308;SDS011;44117;57.142;24.826;2022-12-29T01:01:21;76.63;;;35.67;;
58308;SDS011;44117;57.142;24.826;2022-12-29T01:03:48;75.30;;;36.72;;
58308;SDS011;44117;57.142;24.826;2022-12-29T01:06:16;70.15;;;30.08;;
58308;SDS011;44117;57.142;24.826;2022-12-29T01:08:43;69.78;;;36.65;;
58308;SDS011;44117;57.142;24.826;2022-12-29T01:11:11;79.43;;;38.35;;
58308;SDS011;44117;57.142;24.826;2022-12-29T01:13:39;70.43;;;34.00;;
58308;SDS011;44117;57.142;24.826;2022-12-29T01:16:08;66.85;;;36.65;;
58308;SDS011;44117;57.142;24.826;2022-12-29T01:18:36;66.82;;;33.33;;
58308;SDS011;44117;57.142;24.826;2022-12-29T01:21:04;118.47;;;44.90;;
58308;SDS011;44117;57.142;24.826;2022-12-29T01:23:32;51.78;;;30.23;;
58308;SDS011;44117;57.142;24.826;2022-12-29T01:26:12;58.33;;;26.55;;
58308;SDS011;44117;57.142;24.826;2022-12-29T01:28:41;67.68;;;31.58;;
58308;SDS011;44117;57.142;24.826;2022-12-29T01:31:09;59.38;;;32.75;;
58308;SDS011;44117;57.142;24.826;2022-12-29T01:33:37;60.25;;;27.25;;
58308;SDS011;44117;57.142;24.826;2022-12-29T01:36:06;47.22;;;19.88;;
58308;SDS011;44117;57.142;24.826;2022-12-29T01:38:36;50.38;;;28.45;;
58308;SDS011;44117;57.142;24.826;2022-12-29T01:41:04;55.38;;;28.55;;
58308;SDS011;44117;57.142;24.826;2022-12-29T01:46:33;53.40;;;25.75;;
58308;SDS011;44117;57.142;24.826;2022-12-29T01:51:41;79.55;;;37.47;;
58308;SDS011;44117;57.142;24.826;2022-12-29T01:54:36;78.38;;;40.42;;
58308;SDS011;44117;57.142;24.826;2022-12-29T01:57:12;108.03;;;45.70;;
58308;SDS011;44117;57.142;24.826;2022-12-29T01:59:46;62.63;;;28.13;;
58308;SDS011;44117;57.142;24.826;2022-12-29T02:02:19;57.92;;;24.83;;
58308;SDS011;44117;57.142;24.826;2022-12-29T02:04:46;62.53;;;34.75;;
58308;SDS011;44117;57.142;24.826;2022-12-29T02:07:16;59.22;;;29.38;;
58308;SDS011;44117;57.142;24.826;2022-12-29T02:09:48;53.65;;;24.55;;
58308;SDS011;44117;57.142;24.826;2022-12-29T02:12:17;56.40;;;26.92;;
58308;SDS011;44117;57.142;24.826;2022-12-29T02:14:47;75.22;;;38.47;;
58308;SDS011;44117;57.142;24.826;2022-12-29T02:20:06;52.45;;;23.50;;
58308;SDS011;44117;57.142;24.826;2022-12-29T02:23:21;93.15;;;42.00;;
58308;SDS011;44117;57.142;24.826;2022-12-29T02:26:16;89.28;;;44.78;;
58308;SDS011;44117;57.142;24.826;2022-12-29T02:32:31;80.95;;;37.67;;
58308;SDS011;44117;57.142;24.826;2022-12-29T02:37:43;75.10;;;34.10;;
58308;SDS011;44117;57.142;24.826;2022-12-29T02:40:24;85.35;;;32.17;;
58308;SDS011;44117;57.142;24.826;2022-12-29T02:49:03;60.30;;;22.33;;
58308;SDS011;44117;57.142;24.826;2022-12-29T02:52:01;117.32;;;45.88;;
58308;SDS011;44117;57.142;24.826;2022-12-29T02:54:32;82.10;;;29.35;;
58308;SDS011;44117;57.142;24.826;2022-12-29T02:59:58;90.55;;;33.22;;
58308;SDS011;44117;57.142;24.826;2022-12-29T03:13:44;71.72;;;32.83;;
58308;SDS011;44117;57.142;24.826;2022-12-29T03:16:44;70.47;;;27.95;;
58308;SDS011;44117;57.142;24.826;2022-12-29T03:19:19;82.95;;;36.03;;
58308;SDS011;44117;57.142;24.826;2022-12-29T03:24:40;99.00;;;45.45;;
58308;SDS011;44117;57.142;24.826;2022-12-29T03:27:14;76.70;;;31.08;;
58308;SDS011;44117;57.142;24.826;2022-12-29T03:29:46;76.93;;;30.00;;
58308;SDS011;44117;57.142;24.826;2022-12-29T03:32:21;155.80;;;61.85;;
58308;SDS011;44117;57.142;24.826;2022-12-29T03:34:52;82.70;;;36.05;;
58308;SDS011;44117;57.142;24.826;2022-12-29T03:37:22;129.77;;;58.08;;
58308;SDS011;44117;57.142;24.826;2022-12-29T03:39:54;82.45;;;34.10;;
58308;SDS011;44117;57.142;24.826;2022-12-29T03:42:23;118.60;;;44.97;;
58308;SDS011;44117;57.142;24.826;2022-12-29T03:44:54;72.47;;;31.67;;
58308;SDS011;44117;57.142;24.826;2022-12-29T03:47:23;117.97;;;59.08;;
58308;SDS011;44117;57.142;24.826;2022-12-29T03:49:51;113.63;;;49.53;;
58308;SDS011;44117;57.142;24.826;2022-12-29T03:52:18;108.03;;;46.28;;
58308;SDS011;44117;57.142;24.826;2022-12-29T03:54:46;56.65;;;25.75;;
58308;SDS011;44117;57.142;24.826;2022-12-29T03:57:13;74.78;;;34.05;;
58308;SDS011;44117;57.142;24.826;2022-12-29T03:59:40;64.30;;;30.17;;
58308;SDS011;44117;57.142;24.826;2022-12-29T04:02:07;118.22;;;57.55;;
58308;SDS011;44117;57.142;24.826;2022-12-29T04:04:35;70.32;;;33.05;;
58308;SDS011;44117;57.142;24.826;2022-12-29T04:07:02;84.50;;;41.90;;
58308;SDS011;44117;57.142;24.826;2022-12-29T04:09:29;99.53;;;43.08;;
58308;SDS011;44117;57.142;24.826;2022-12-29T04:11:57;74.53;;;34.38;;
58308;SDS011;44117;57.142;24.826;2022-12-29T04:14:24;89.68;;;46.05;;
58308;SDS011;44117;57.142;24.826;2022-12-29T04:16:52;54.20;;;22.02;;
58308;SDS011;44117;57.142;24.826;2022-12-29T04:19:19;89.65;;;36.70;;
58308;SDS011;44117;57.142;24.826;2022-12-29T04:21:46;93.85;;;46.00;;
58308;SDS011;44117;57.142;24.826;2022-12-29T04:24:13;120.03;;;47.22;;
58308;SDS011;44117;57.142;24.826;2022-12-29T04:26:41;59.53;;;31.27;;
58308;SDS011;44117;57.142;24.826;2022-12-29T04:29:08;54.13;;;24.00;;
58308;SDS011;44117;57.142;24.826;2022-12-29T04:31:35;60.92;;;30.80;;
58308;SDS011;44117;57.142;24.826;2022-12-29T04:34:02;66.57;;;32.55;;
58308;SDS011;44117;57.142;24.826;2022-12-29T04:36:30;84.28;;;39.03;;
58308;SDS011;44117;57.142;24.826;2022-12-29T04:38:57;82.47;;;42.55;;
58308;SDS011;44117;57.142;24.826;2022-12-29T04:41:24;74.18;;;33.83;;
58308;SDS011;44117;57.142;24.826;2022-12-29T04:43:51;62.78;;;33.50;;
58308;SDS011;44117;57.142;24.826;2022-12-29T04:46:19;70.25;;;33.40;;
58308;SDS011;44117;57.142;24.826;2022-12-29T04:48:46;72.30;;;39.00;;
58308;SDS011;44117;57.142;24.826;2022-12-29T04:51:14;48.65;;;23.65;;
58308;SDS011;44117;57.142;24.826;2022-12-29T04:53:41;57.22;;;32.08;;
58308;SDS011;44117;57.142;24.826;2022-12-29T04:56:08;45.63;;;21.10;;
58308;SDS011;44117;57.142;24.826;2022-12-29T04:58:36;50.97;;;26.23;;
58308;SDS011;44117;57.142;24.826;2022-12-29T05:01:03;54.33;;;30.13;;
58308;SDS011;44117;57.142;24.826;2022-12-29T05:03:30;51.50;;;24.92;;
58308;SDS011;44117;57.142;24.826;2022-12-29T05:05:58;54.25;;;24.05;;
58308;SDS011;44117;57.142;24.826;2022-12-29T05:08:25;62.85;;;33.65;;
58308;SDS011;44117;57.142;24.826;2022-12-29T05:10:53;87.85;;;41.10;;
58308;SDS011;44117;57.142;24.826;2022-12-29T05:13:21;63.50;;;28.40;;
58308;SDS011;44117;57.142;24.826;2022-12-29T05:15:49;114.13;;;46.45;;
58308;SDS011;44117;57.142;24.826;2022-12-29T05:18:19;95.30;;;44.05;;
58308;SDS011;44117;57.142;24.826;2022-12-29T05:20:47;78.80;;;32.03;;
58308;SDS011;44117;57.142;24.826;2022-12-29T05:23:14;59.83;;;27.30;;
58308;SDS011;44117;57.142;24.826;2022-12-29T05:25:43;116.13;;;47.75;;
58308;SDS011;44117;57.142;24.826;2022-12-29T05:28:12;111.28;;;44.63;;
58308;SDS011;44117;57.142;24.826;2022-12-29T05:30:39;144.50;;;52.33;;
58308;SDS011;44117;57.142;24.826;2022-12-29T05:33:06;78.13;;;34.63;;
58308;SDS011;44117;57.142;24.826;2022-12-29T05:35:34;112.35;;;51.88;;
58308;SDS011;44117;57.142;24.826;2022-12-29T05:38:01;91.65;;;35.50;;
58308;SDS011;44117;57.142;24.826;2022-12-29T05:40:28;63.92;;;25.65;;
58308;SDS011;44117;57.142;24.826;2022-12-29T05:42:55;74.82;;;28.17;;
58308;SDS011;44117;57.142;24.826;2022-12-29T05:45:23;93.22;;;40.33;;
58308;SDS011;44117;57.142;24.826;2022-12-29T05:47:50;83.18;;;38.42;;
58308;SDS011;44117;57.142;24.826;2022-12-29T05:50:17;67.10;;;28.25;;
58308;SDS011;44117;57.142;24.826;2022-12-29T05:52:44;87.30;;;43.35;;
58308;SDS011;44117;57.142;24.826;2022-12-29T05:55:12;77.50;;;34.78;;
58308;SDS011;44117;57.142;24.826;2022-12-29T05:57:39;67.47;;;28.05;;
58308;SDS011;44117;57.142;24.826;2022-12-29T06:00:07;66.78;;;27.73;;
58308;SDS011;44117;57.142;24.826;2022-12-29T06:02:34;56.65;;;22.42;;
58308;SDS011;44117;57.142;24.826;2022-12-29T06:05:02;58.28;;;21.58;;
58308;SDS011;44117;57.142;24.826;2022-12-29T06:07:29;67.20;;;25.20;;
58308;SDS011;44117;57.142;24.826;2022-12-29T06:09:57;76.25;;;32.55;;
58308;SDS011;44117;57.142;24.826;2022-12-29T06:12:24;73.88;;;29.48;;
58308;SDS011;44117;57.142;24.826;2022-12-29T06:14:51;72.70;;;35.30;;
58308;SDS011;44117;57.142;24.826;2022-12-29T06:17:18;62.63;;;23.08;;
58308;SDS011;44117;57.142;24.826;2022-12-29T06:19:45;68.40;;;27.05;;
58308;SDS011;44117;57.142;24.826;2022-12-29T06:22:12;72.63;;;32.22;;
58308;SDS011;44117;57.142;24.826;2022-12-29T06:24:40;65.65;;;30.42;;
58308;SDS011;44117;57.142;24.826;2022-12-29T06:27:07;74.82;;;30.35;;
58308;SDS011;44117;57.142;24.826;2022-12-29T06:29:34;74.15;;;31.40;;
58308;SDS011;44117;57.142;24.826;2022-12-29T06:32:03;73.30;;;34.30;;
58308;SDS011;44117;57.142;24.826;2022-12-29T06:34:30;85.28;;;36.22;;
58308;SDS011;44117;57.142;24.826;2022-12-29T06:36:58;63.83;;;28.02;;
58308;SDS011;44117;57.142;24.826;2022-12-29T06:39:25;49.72;;;20.13;;
58308;SDS011;44117;57.142;24.826;2022-12-29T06:41:52;190.57;;;49.63;;
58308;SDS011;44117;57.142;24.826;2022-12-29T06:44:20;63.53;;;23.92;;
58308;SDS011;44117;57.142;24.826;2022-12-29T06:46:48;152.98;;;47.13;;
58308;SDS011;44117;57.142;24.826;2022-12-29T06:49:16;67.68;;;24.65;;
58308;SDS011;44117;57.142;24.826;2022-12-29T06:51:44;76.72;;;30.23;;
58308;SDS011;44117;57.142;24.826;2022-12-29T06:54:11;112.38;;;44.53;;
58308;SDS011;44117;57.142;24.826;2022-12-29T06:56:39;73.57;;;34.33;;
58308;SDS011;44117;57.142;24.826;2022-12-29T06:59:06;152.07;;;57.88;;
58308;SDS011;44117;57.142;24.826;2022-12-29T07:01:33;71.35;;;31.48;;
58308;SDS011;44117;57.142;24.826;2022-12-29T07:04:02;55.80;;;25.27;;
58308;SDS011;44117;57.142;24.826;2022-12-29T07:06:30;83.90;;;30.05;;
58308;SDS011;44117;57.142;24.826;2022-12-29T07:08:57;124.95;;;44.80;;
58308;SDS011;44117;57.142;24.826;2022-12-29T07:11:24;105.18;;;33.08;;
58308;SDS011;44117;57.142;24.826;2022-12-29T07:13:52;124.72;;;38.10;;
58308;SDS011;44117;57.142;24.826;2022-12-29T07:16:19;115.55;;;37.53;;
58308;SDS011;44117;57.142;24.826;2022-12-29T07:18:46;226.52;;;58.47;;
58308;SDS011;44117;57.142;24.826;2022-12-29T07:21:13;85.30;;;26.88;;
58308;SDS011;44117;57.142;24.826;2022-12-29T07:23:41;213.20;;;57.55;;
58308;SDS011;44117;57.142;24.826;2022-12-29T07:26:09;160.52;;;57.65;;
58308;SDS011;44117;57.142;24.826;2022-12-29T07:28:38;167.52;;;41.63;;
58308;SDS011;44117;57.142;24.826;2022-12-29T07:31:06;197.10;;;57.25;;
58308;SDS011;44117;57.142;24.826;2022-12-29T07:33:39;289.45;;;57.65;;
58308;SDS011;44117;57.142;24.826;2022-12-29T07:36:06;140.18;;;55.38;;
58308;SDS011;44117;57.142;24.826;2022-12-29T07:38:33;111.20;;;43.28;;
58308;SDS011;44117;57.142;24.826;2022-12-29T07:41:01;66.47;;;29.52;;
58308;SDS011;44117;57.142;24.826;2022-12-29T07:43:28;104.95;;;55.30;;
58308;SDS011;44117;57.142;24.826;2022-12-29T07:45:55;69.25;;;33.03;;
58308;SDS011;44117;57.142;24.826;2022-12-29T07:48:23;89.10;;;42.03;;
58308;SDS011;44117;57.142;24.826;2022-12-29T07:50:50;52.72;;;19.98;;
58308;SDS011;44117;57.142;24.826;2022-12-29T07:53:18;68.90;;;30.42;;
58308;SDS011;44117;57.142;24.826;2022-12-29T07:55:45;69.15;;;27.52;;
58308;SDS011;44117;57.142;24.826;2022-12-29T07:58:13;60.28;;;22.88;;
58308;SDS011;44117;57.142;24.826;2022-12-29T08:00:40;88.45;;;35.17;;
58308;SDS011;44117;57.142;24.826;2022-12-29T08:03:07;74.18;;;38.58;;
58308;SDS011;44117;57.142;24.826;2022-12-29T08:05:34;56.08;;;21.42;;
58308;SDS011;44117;57.142;24.826;2022-12-29T08:08:02;61.33;;;23.55;;
58308;SDS011;44117;57.142;24.826;2022-12-29T08:10:29;98.43;;;43.50;;
58308;SDS011;44117;57.142;24.826;2022-12-29T08:12:57;84.72;;;27.45;;
58308;SDS011;44117;57.142;24.826;2022-12-29T08:15:24;104.22;;;52.22;;
58308;SDS011;44117;57.142;24.826;2022-12-29T08:17:57;97.28;;;46.97;;
58308;SDS011;44117;57.142;24.826;2022-12-29T08:20:25;81.95;;;25.20;;
58308;SDS011;44117;57.142;24.826;2022-12-29T08:22:52;89.95;;;29.45;;
58308;SDS011;44117;57.142;24.826;2022-12-29T08:25:19;106.50;;;36.88;;
58308;SDS011;44117;57.142;24.826;2022-12-29T08:27:46;103.97;;;34.80;;
58308;SDS011;44117;57.142;24.826;2022-12-29T08:30:14;97.40;;;28.48;;
58308;SDS011;44117;57.142;24.826;2022-12-29T08:32:41;146.35;;;42.80;;
58308;SDS011;44117;57.142;24.826;2022-12-29T08:35:08;106.72;;;36.63;;
58308;SDS011;44117;57.142;24.826;2022-12-29T08:37:36;138.60;;;35.25;;
58308;SDS011;44117;57.142;24.826;2022-12-29T08:40:04;103.10;;;31.48;;
58308;SDS011;44117;57.142;24.826;2022-12-29T08:42:32;97.05;;;28.13;;
58308;SDS011;44117;57.142;24.826;2022-12-29T08:45:00;110.68;;;40.75;;
58308;SDS011;44117;57.142;24.826;2022-12-29T08:47:27;96.68;;;29.13;;
58308;SDS011;44117;57.142;24.826;2022-12-29T08:49:55;111.97;;;36.08;;
58308;SDS011;44117;57.142;24.826;2022-12-29T08:52:22;96.95;;;28.10;;
58308;SDS011;44117;57.142;24.826;2022-12-29T08:54:49;99.13;;;29.50;;
58308;SDS011;44117;57.142;24.826;2022-12-29T08:57:16;157.02;;;44.90;;
58308;SDS011;44117;57.142;24.826;2022-12-29T08:59:43;126.57;;;39.33;;
58308;SDS011;44117;57.142;24.826;2022-12-29T09:02:11;117.68;;;31.23;;
58308;SDS011;44117;57.142;24.826;2022-12-29T09:04:45;102.68;;;27.92;;
58308;SDS011;44117;57.142;24.826;2022-12-29T09:07:12;212.52;;;57.47;;
58308;SDS011;44117;57.142;24.826;2022-12-29T09:09:40;141.75;;;41.90;;
58308;SDS011;44117;57.142;24.826;2022-12-29T09:12:07;118.32;;;33.70;;
58308;SDS011;44117;57.142;24.826;2022-12-29T09:14:34;127.75;;;38.70;;
58308;SDS011;44117;57.142;24.826;2022-12-29T09:17:01;99.15;;;23.77;;
58308;SDS011;44117;57.142;24.826;2022-12-29T09:19:47;187.98;;;59.40;;
58308;SDS011;44117;57.142;24.826;2022-12-29T09:22:14;125.25;;;36.72;;
58308;SDS011;44117;57.142;24.826;2022-12-29T09:24:41;119.70;;;30.60;;
58308;SDS011;44117;57.142;24.826;2022-12-29T09:27:09;137.48;;;37.95;;
58308;SDS011;44117;57.142;24.826;2022-12-29T09:29:36;164.15;;;42.42;;
58308;SDS011;44117;57.142;24.826;2022-12-29T09:32:03;162.63;;;48.88;;
58308;SDS011;44117;57.142;24.826;2022-12-29T09:34:33;133.23;;;40.28;;
58308;SDS011;44117;57.142;24.826;2022-12-29T09:37:00;120.07;;;33.90;;
58308;SDS011;44117;57.142;24.826;2022-12-29T09:39:28;113.93;;;36.33;;
58308;SDS011;44117;57.142;24.826;2022-12-29T09:42:05;136.02;;;40.47;;
58308;SDS011;44117;57.142;24.826;2022-12-29T09:44:55;123.95;;;39.47;;
58308;SDS011;44117;57.142;24.826;2022-12-29T09:47:31;105.22;;;33.78;;
58308;SDS011;44117;57.142;24.826;2022-12-29T09:52:45;89.60;;;35.85;;
58308;SDS011;44117;57.142;24.826;2022-12-29T09:55:17;130.48;;;41.67;;
58308;SDS011;44117;57.142;24.826;2022-12-29T09:57:52;87.50;;;29.50;;
58308;SDS011;44117;57.142;24.826;2022-12-29T10:00:21;87.15;;;30.58;;
58308;SDS011;44117;57.142;24.826;2022-12-29T10:03:02;89.93;;;29.67;;
58308;SDS011;44117;57.142;24.826;2022-12-29T10:16:31;60.90;;;22.25;;
58308;SDS011;44117;57.142;24.826;2022-12-29T10:24:30;52.03;;;20.40;;
58308;SDS011;44117;57.142;24.826;2022-12-29T10:26:59;53.72;;;20.77;;
58308;SDS011;44117;57.142;24.826;2022-12-29T10:29:28;43.72;;;17.63;;
58308;SDS011;44117;57.142;24.826;2022-12-29T10:32:09;45.30;;;17.48;;
58308;SDS011;44117;57.142;24.826;2022-12-29T10:34:54;40.40;;;19.48;;
58308;SDS011;44117;57.142;24.826;2022-12-29T10:41:13;36.40;;;15.45;;
58308;SDS011;44117;57.142;24.826;2022-12-29T10:43:32;39.10;;;15.85;;
58308;SDS011;44117;57.142;24.826;2022-12-29T10:46:04;41.47;;;18.48;;
58308;SDS011;44117;57.142;24.826;2022-12-29T10:48:37;31.23;;;13.93;;
58308;SDS011;44117;57.142;24.826;2022-12-29T10:51:05;41.15;;;18.52;;
58308;SDS011;44117;57.142;24.826;2022-12-29T10:53:48;35.95;;;16.15;;
58308;SDS011;44117;57.142;24.826;2022-12-29T10:56:46;35.92;;;15.38;;
58308;SDS011;44117;57.142;24.826;2022-12-29T10:59:21;35.05;;;17.88;;
58308;SDS011;44117;57.142;24.826;2022-12-29T11:01:58;33.92;;;14.05;;
58308;SDS011;44117;57.142;24.826;2022-12-29T11:07:18;40.75;;;20.92;;
58308;SDS011;44117;57.142;24.826;2022-12-29T11:09:53;34.72;;;16.17;;
58308;SDS011;44117;57.142;24.826;2022-12-29T11:12:28;35.92;;;17.42;;
58308;SDS011;44117;57.142;24.826;2022-12-29T11:15:01;30.58;;;14.32;;
58308;SDS011;44117;57.142;24.826;2022-12-29T11:22:55;26.90;;;12.32;;
58308;SDS011;44117;57.142;24.826;2022-12-29T11:25:22;23.52;;;14.90;;
58308;SDS011;44117;57.142;24.826;2022-12-29T11:27:56;26.17;;;14.10;;
58308;SDS011;44117;57.142;24.826;2022-12-29T11:30:28;20.60;;;10.82;;
58308;SDS011;44117;57.142;24.826;2022-12-29T11:32:57;21.70;;;10.07;;
58308;SDS011;44117;57.142;24.826;2022-12-29T11:35:30;19.70;;;11.07;;
58308;SDS011;44117;57.142;24.826;2022-12-29T11:38:00;22.27;;;11.82;;
58308;SDS011;44117;57.142;24.826;2022-12-29T11:40:29;21.90;;;10.52;;
58308;SDS011;44117;57.142;24.826;2022-12-29T11:42:58;20.20;;;10.98;;
58308;SDS011;44117;57.142;24.826;2022-12-29T11:45:30;19.02;;;11.02;;
58308;SDS011;44117;57.142;24.826;2022-12-29T11:48:07;21.05;;;11.15;;
58308;SDS011;44117;57.142;24.826;2022-12-29T11:50:39;19.63;;;11.02;;
58308;SDS011;44117;57.142;24.826;2022-12-29T11:53:43;22.77;;;14.43;;
58308;SDS011;44117;57.142;24.826;2022-12-29T11:56:13;26.00;;;14.40;;
58308;SDS011;44117;57.142;24.826;2022-12-29T11:58:42;22.45;;;12.57;;
58308;SDS011;44117;57.142;24.826;2022-12-29T12:04:16;22.10;;;11.30;;
58308;SDS011;44117;57.142;24.826;2022-12-29T12:06:49;25.25;;;13.73;;
58308;SDS011;44117;57.142;24.826;2022-12-29T12:09:31;27.83;;;15.13;;
58308;SDS011;44117;57.142;24.826;2022-12-29T12:12:03;24.83;;;13.02;;
58308;SDS011;44117;57.142;24.826;2022-12-29T12:17:17;27.65;;;11.85;;
58308;SDS011;44117;57.142;24.826;2022-12-29T12:20:00;29.08;;;14.48;;
58308;SDS011;44117;57.142;24.826;2022-12-29T12:22:53;27.08;;;11.35;;
58308;SDS011;44117;57.142;24.826;2022-12-29T12:25:30;34.97;;;16.33;;
58308;SDS011;44117;57.142;24.826;2022-12-29T12:31:17;34.53;;;15.40;;
58308;SDS011;44117;57.142;24.826;2022-12-29T12:33:50;35.97;;;17.73;;
58308;SDS011;44117;57.142;24.826;2022-12-29T12:36:43;34.97;;;15.82;;
58308;SDS011;44117;57.142;24.826;2022-12-29T12:48:41;31.05;;;15.32;;
58308;SDS011;44117;57.142;24.826;2022-12-29T12:53:50;37.67;;;14.05;;
58308;SDS011;44117;57.142;24.826;2022-12-29T13:01:45;51.42;;;19.55;;
58308;SDS011;44117;57.142;24.826;2022-12-29T13:12:55;52.58;;;17.65;;
58308;SDS011;44117;57.142;24.826;2022-12-29T13:17:58;46.92;;;19.30;;
58308;SDS011;44117;57.142;24.826;2022-12-29T13:20:49;37.13;;;14.82;;
58308;SDS011;44117;57.142;24.826;2022-12-29T13:26:08;50.22;;;20.83;;
58308;SDS011;44117;57.142;24.826;2022-12-29T13:29:18;55.58;;;20.70;;
58308;SDS011;44117;57.142;24.826;2022-12-29T13:32:05;40.33;;;15.65;;
58308;SDS011;44117;57.142;24.826;2022-12-29T13:34:43;56.88;;;18.80;;
58308;SDS011;44117;57.142;24.826;2022-12-29T13:37:31;51.50;;;15.43;;
58308;SDS011;44117;57.142;24.826;2022-12-29T13:40:03;51.90;;;18.70;;
58308;SDS011;44117;57.142;24.826;2022-12-29T13:42:39;49.78;;;22.30;;
58308;SDS011;44117;57.142;24.826;2022-12-29T13:45:13;62.60;;;23.05;;
58308;SDS011;44117;57.142;24.826;2022-12-29T13:50:22;47.63;;;15.27;;
58308;SDS011;44117;57.142;24.826;2022-12-29T14:03:41;55.25;;;18.20;;
58308;SDS011;44117;57.142;24.826;2022-12-29T14:06:19;46.22;;;21.70;;
58308;SDS011;44117;57.142;24.826;2022-12-29T14:08:52;43.55;;;18.45;;
58308;SDS011;44117;57.142;24.826;2022-12-29T14:11:39;46.35;;;18.55;;
58308;SDS011;44117;57.142;24.826;2022-12-29T14:14:21;53.97;;;21.05;;
58308;SDS011;44117;57.142;24.826;2022-12-29T14:16:51;62.10;;;22.42;;
58308;SDS011;44117;57.142;24.826;2022-12-29T14:19:21;45.25;;;17.23;;
58308;SDS011;44117;57.142;24.826;2022-12-29T14:22:00;55.40;;;20.58;;
58308;SDS011;44117;57.142;24.826;2022-12-29T14:42:46;71.70;;;26.40;;
58308;SDS011;44117;57.142;24.826;2022-12-29T14:47:43;62.90;;;25.98;;
58308;SDS011;44117;57.142;24.826;2022-12-29T14:55:38;69.18;;;30.55;;
58308;SDS011;44117;57.142;24.826;2022-12-29T14:58:15;68.72;;;29.13;;
58308;SDS011;44117;57.142;24.826;2022-12-29T15:00:46;41.30;;;18.70;;
58308;SDS011;44117;57.142;24.826;2022-12-29T15:03:49;52.63;;;20.02;;
58308;SDS011;44117;57.142;24.826;2022-12-29T15:06:17;55.05;;;22.98;;
58308;SDS011;44117;57.142;24.826;2022-12-29T15:09:31;49.90;;;24.20;;
58308;SDS011;44117;57.142;24.826;2022-12-29T15:11:44;44.70;;;17.83;;
58308;SDS011;44117;57.142;24.826;2022-12-29T15:14:28;50.33;;;25.42;;
58308;SDS011;44117;57.142;24.826;2022-12-29T15:16:57;43.08;;;18.63;;
58308;SDS011;44117;57.142;24.826;2022-12-29T15:19:25;44.00;;;17.27;;
58308;SDS011;44117;57.142;24.826;2022-12-29T15:21:54;57.42;;;25.60;;
58308;SDS011;44117;57.142;24.826;2022-12-29T15:24:22;69.22;;;29.60;;
58308;SDS011;44117;57.142;24.826;2022-12-29T15:26:51;69.53;;;23.83;;
58308;SDS011;44117;57.142;24.826;2022-12-29T15:32:00;61.10;;;22.50;;
58308;SDS011;44117;57.142;24.826;2022-12-29T15:34:37;68.45;;;20.23;;
58308;SDS011;44117;57.142;24.826;2022-12-29T15:37:06;67.55;;;20.02;;
58308;SDS011;44117;57.142;24.826;2022-12-29T15:39:34;97.07;;;25.60;;
58308;SDS011;44117;57.142;24.826;2022-12-29T15:45:08;88.28;;;23.60;;
58308;SDS011;44117;57.142;24.826;2022-12-29T15:47:39;108.38;;;24.15;;
58308;SDS011;44117;57.142;24.826;2022-12-29T15:50:14;86.30;;;22.05;;
58308;SDS011;44117;57.142;24.826;2022-12-29T15:52:44;132.43;;;25.30;;
58308;SDS011;44117;57.142;24.826;2022-12-29T15:55:24;109.20;;;21.70;;
58308;SDS011;44117;57.142;24.826;2022-12-29T15:57:57;124.70;;;25.48;;
58308;SDS011;44117;57.142;24.826;2022-12-29T16:00:28;117.13;;;27.95;;
58308;SDS011;44117;57.142;24.826;2022-12-29T16:02:58;64.15;;;19.48;;
58308;SDS011;44117;57.142;24.826;2022-12-29T16:05:31;108.18;;;32.30;;
58308;SDS011;44117;57.142;24.826;2022-12-29T16:08:01;78.67;;;19.87;;
58308;SDS011;44117;57.142;24.826;2022-12-29T16:10:31;63.17;;;20.70;;
58308;SDS011;44117;57.142;24.826;2022-12-29T16:18:49;57.85;;;21.60;;
58308;SDS011;44117;57.142;24.826;2022-12-29T16:21:26;64.95;;;24.95;;
58308;SDS011;44117;57.142;24.826;2022-12-29T16:24:00;48.58;;;20.17;;
58308;SDS011;44117;57.142;24.826;2022-12-29T16:26:38;50.15;;;19.48;;
58308;SDS011;44117;57.142;24.826;2022-12-29T16:29:11;44.83;;;19.55;;
58308;SDS011;44117;57.142;24.826;2022-12-29T16:34:26;43.47;;;17.98;;
58308;SDS011;44117;57.142;24.826;2022-12-29T16:36:57;46.67;;;21.17;;
58308;SDS011;44117;57.142;24.826;2022-12-29T16:39:38;40.30;;;17.70;;
58308;SDS011;44117;57.142;24.826;2022-12-29T16:50:32;35.78;;;16.65;;
58308;SDS011;44117;57.142;24.826;2022-12-29T16:53:02;45.38;;;21.55;;
58308;SDS011;44117;57.142;24.826;2022-12-29T16:55:30;42.30;;;20.80;;
58308;SDS011;44117;57.142;24.826;2022-12-29T16:57:58;33.83;;;15.25;;
58308;SDS011;44117;57.142;24.826;2022-12-29T17:00:35;41.95;;;17.85;;
58308;SDS011;44117;57.142;24.826;2022-12-29T17:03:03;39.55;;;18.23;;
58308;SDS011;44117;57.142;24.826;2022-12-29T17:05:30;42.05;;;20.55;;
58308;SDS011;44117;57.142;24.826;2022-12-29T17:07:57;40.10;;;17.25;;
58308;SDS011;44117;57.142;24.826;2022-12-29T17:10:27;38.85;;;19.92;;
58308;SDS011;44117;57.142;24.826;2022-12-29T17:13:15;36.58;;;19.73;;
58308;SDS011;44117;57.142;24.826;2022-12-29T17:15:42;39.13;;;19.25;;
58308;SDS011;44117;57.142;24.826;2022-12-29T17:18:09;44.55;;;21.67;;
58308;SDS011;44117;57.142;24.826;2022-12-29T17:20:39;36.72;;;17.80;;
58308;SDS011;44117;57.142;24.826;2022-12-29T17:23:12;35.58;;;17.27;;
58308;SDS011;44117;57.142;24.826;2022-12-29T17:25:51;35.97;;;18.65;;